Time;durP1;ratioP1;P1;durP2;ratioP2;P2;SDS_P1;SDS_P2;PMS_P1;PMS_P2;Temp;Humidity;BMP_temperature;BMP_pressure;BME280_temperature;BME280_humidity;BME280_pressure;Samples;Min_cycle;Max_cycle;Signal;HPM_P1;HPM_P2
2021/01/31 00:01:00;;;;;;;19.35;13.27;;;;;;;7.23;44.81;100175.94;4909249;28;99519;-76
2021/01/31 00:03:28;;;;;;;21.92;13.93;;;;;;;7.21;44.01;100168.84;4909778;28;97532;-76
2021/01/31 00:05:58;;;;;;;19.77;14.77;;;;;;;7.18;44.15;100173.06;4910372;28;97981;-75
2021/01/31 00:08:26;;;;;;;21.90;14.32;;;;;;;7.18;43.90;100172.16;4908797;28;97821;-75
2021/01/31 00:10:56;;;;;;;23.90;15.48;;;;;;;7.15;44.55;100175.50;4909836;28;97856;-75
2021/01/31 00:13:26;;;;;;;20.90;14.38;;;;;;;7.10;44.75;100174.34;4892199;28;97740;-75
2021/01/31 00:15:54;;;;;;;21.33;14.50;;;;;;;7.10;44.17;100174.34;4906076;28;98904;-72
2021/01/31 00:18:24;;;;;;;20.10;14.20;;;;;;;7.08;44.35;100178.56;4910622;28;98839;-77
2021/01/31 00:20:53;;;;;;;20.15;14.13;;;;;;;7.05;44.41;100180.09;4910234;28;97775;-77
2021/01/31 00:23:21;;;;;;;18.75;13.63;;;;;;;7.02;44.55;100183.47;4913850;28;97662;-77
2021/01/31 00:25:49;;;;;;;17.55;13.82;;;;;;;6.99;44.73;100185.88;4906927;28;97673;-76
2021/01/31 00:28:19;;;;;;;20.33;13.35;;;;;;;6.96;44.26;100190.03;4895339;28;98270;-76
2021/01/31 00:30:47;;;;;;;23.02;14.65;;;;;;;6.91;44.12;100181.03;4914691;28;97992;-76
2021/01/31 00:33:18;;;;;;;27.48;15.70;;;;;;;6.83;44.29;100187.50;4913177;28;97566;-75
2021/01/31 00:35:46;;;;;;;23.25;16.25;;;;;;;6.79;44.08;100185.53;4911572;28;97901;-75
2021/01/31 00:38:15;;;;;;;22.83;14.90;;;;;;;6.78;44.72;100183.75;4910441;28;98840;-76
2021/01/31 00:40:43;;;;;;;22.27;15.27;;;;;;;6.79;44.97;100191.66;4911675;28;99247;-76
2021/01/31 00:43:11;;;;;;;22.15;15.93;;;;;;;6.75;44.13;100180.97;4906832;28;98011;-75
2021/01/31 00:45:40;;;;;;;23.20;14.88;;;;;;;6.71;44.92;100181.59;4911263;28;96762;-75
2021/01/31 00:48:08;;;;;;;21.48;15.23;;;;;;;6.67;44.44;100184.84;4899287;28;98952;-76
2021/01/31 00:50:38;;;;;;;21.25;15.25;;;;;;;6.64;44.81;100192.50;4912657;28;97882;-75
2021/01/31 00:53:11;;;;;;;20.33;15.15;;;;;;;6.64;44.64;100182.06;4900018;28;97207;-74
2021/01/31 00:55:43;;;;;;;22.05;14.82;;;;;;;6.59;44.91;100180.84;4898966;28;97370;-76
2021/01/31 00:58:10;;;;;;;24.70;15.57;;;;;;;6.54;44.60;100177.09;4905504;28;99092;-76
2021/01/31 01:00:40;;;;;;;20.85;14.57;;;;;;;6.49;44.39;100184.66;4904492;28;99166;-76
2021/01/31 01:03:13;;;;;;;22.23;16.50;;;;;;;6.47;44.72;100182.75;4891837;28;97439;-76
2021/01/31 01:06:01;;;;;;;23.30;15.07;;;;;;;6.41;44.76;100185.91;4905228;28;97432;-75
2021/01/31 01:08:28;;;;;;;21.52;15.25;;;;;;;6.40;44.71;100185.81;4901275;28;99178;-76
2021/01/31 01:10:56;;;;;;;29.52;20.75;;;;;;;6.55;44.74;100184.13;4896261;28;98284;-75
2021/01/31 01:13:26;;;;;;;24.92;17.65;;;;;;;6.49;44.25;100191.59;4900482;28;98154;-75
2021/01/31 01:15:54;;;;;;;23.40;15.95;;;;;;;6.45;44.50;100192.19;4895481;28;97713;-75
2021/01/31 01:18:21;;;;;;;21.75;14.50;;;;;;;6.40;44.79;100193.66;4895224;28;98144;-75
2021/01/31 01:20:49;;;;;;;18.63;14.88;;;;;;;6.33;44.87;100191.47;4893114;28;97557;-76
2021/01/31 01:23:17;;;;;;;22.67;15.90;;;;;;;6.25;44.57;100193.63;4900847;28;97176;-74
2021/01/31 01:25:44;;;;;;;25.63;14.70;;;;;;;6.20;44.69;100189.84;4890158;28;97946;-75
2021/01/31 01:28:13;;;;;;;21.23;15.23;;;;;;;6.21;44.78;100195.94;4911510;28;98564;-75
2021/01/31 01:30:40;;;;;;;21.35;15.05;;;;;;;6.18;44.59;100195.75;4912029;28;99284;-75
2021/01/31 01:33:08;;;;;;;19.45;14.00;;;;;;;6.14;44.64;100190.38;4913497;28;97735;-74
2021/01/31 01:35:35;;;;;;;20.50;14.18;;;;;;;6.13;45.01;100196.38;4893120;28;96801;-73
2021/01/31 01:38:03;;;;;;;19.73;14.23;;;;;;;6.14;45.11;100197.28;4906482;28;97880;-75
2021/01/31 01:40:32;;;;;;;19.98;15.15;;;;;;;6.14;44.45;100192.97;4907680;28;97446;-74
2021/01/31 01:43:00;;;;;;;20.70;14.60;;;;;;;6.14;44.44;100192.06;4913083;28;97911;-74
2021/01/31 01:45:28;;;;;;;18.63;14.15;;;;;;;6.14;44.74;100190.38;4911011;28;97962;-75
2021/01/31 01:47:58;;;;;;;18.10;13.63;;;;;;;6.12;44.83;100188.47;4909962;28;99327;-74
2021/01/31 01:50:30;;;;;;;20.13;13.77;;;;;;;6.17;44.27;100188.75;4909039;28;98034;-75
2021/01/31 01:52:59;;;;;;;20.30;15.07;;;;;;;6.13;44.91;100191.16;4910816;28;97085;-75
2021/01/31 01:55:31;;;;;;;19.17;14.10;;;;;;;6.10;44.92;100185.78;4895201;28;97536;-75
2021/01/31 01:58:01;;;;;;;20.23;14.43;;;;;;;6.06;44.94;100191.59;4909186;28;98248;-74
2021/01/31 02:00:28;;;;;;;20.98;13.98;;;;;;;5.98;44.62;100184.13;4912762;28;98984;-74
2021/01/31 02:02:58;;;;;;;21.90;14.70;;;;;;;5.91;44.87;100184.56;4911937;28;97459;-75
2021/01/31 02:05:26;;;;;;;17.47;13.23;;;;;;;5.81;44.61;100182.16;4911178;28;97217;-75
2021/01/31 02:07:54;;;;;;;19.00;13.40;;;;;;;5.73;45.00;100181.66;4908365;28;99036;-75
2021/01/31 02:10:23;;;;;;;19.00;13.50;;;;;;;5.66;44.93;100191.59;4908599;28;97575;-75
2021/01/31 02:12:54;;;;;;;23.05;18.25;;;;;;;5.79;44.20;100184.66;4908511;28;97467;-77
2021/01/31 02:15:22;;;;;;;23.15;16.77;;;;;;;5.71;44.32;100183.28;4908301;28;99614;-74
2021/01/31 02:18:20;;;;;;;19.67;14.55;;;;;;;5.68;44.90;100190.00;4913715;28;97676;-74
2021/01/31 02:21:06;;;;;;;26.98;20.05;;;;;;;5.85;44.37;100185.09;4910556;28;98202;-76
2021/01/31 02:23:53;;;;;;;21.57;16.23;;;;;;;5.68;43.94;100195.22;4911112;28;97309;-77
2021/01/31 02:26:23;;;;;;;18.08;14.18;;;;;;;5.55;44.59;100185.72;4913509;28;100044;-77
2021/01/31 02:28:54;;;;;;;19.43;13.13;;;;;;;5.43;44.78;100184.06;4911632;28;98909;-76
2021/01/31 02:31:46;;;;;;;24.75;18.80;;;;;;;5.47;44.29;100189.59;4911451;28;98342;-77
2021/01/31 02:34:21;;;;;;;20.50;14.57;;;;;;;5.22;44.39;100193.13;4911449;28;97705;-77
2021/01/31 02:37:00;;;;;;;22.13;15.50;;;;;;;5.09;44.50;100199.25;4909032;28;97523;-77
2021/01/31 02:39:40;;;;;;;19.57;14.80;;;;;;;4.96;44.82;100201.84;4909930;28;97946;-76
2021/01/31 02:42:23;;;;;;;20.73;15.40;;;;;;;4.85;44.61;100213.25;4909085;28;98142;-77
2021/01/31 02:44:57;;;;;;;23.37;15.60;;;;;;;4.80;44.70;100214.66;4893162;28;96955;-76
2021/01/31 02:47:26;;;;;;;20.27;14.20;;;;;;;4.72;44.92;100205.44;4911755;28;97591;-76
2021/01/31 02:49:57;;;;;;;19.50;15.07;;;;;;;4.65;45.20;100209.28;4908164;28;98168;-76
2021/01/31 02:52:28;;;;;;;21.93;14.37;;;;;;;4.57;44.97;100210.50;4909726;28;98645;-77
2021/01/31 02:55:00;;;;;;;23.17;15.17;;;;;;;4.53;44.62;100204.97;4910410;28;97438;-76
2021/01/31 02:57:31;;;;;;;21.33;15.27;;;;;;;4.46;44.85;100205.38;4918072;28;97316;-76
2021/01/31 03:00:06;;;;;;;22.67;14.63;;;;;;;4.42;45.13;100204.25;4911577;28;99309;-77
2021/01/31 03:02:36;;;;;;;24.20;15.73;;;;;;;4.37;45.10;100209.94;4892698;28;100796;-77
2021/01/31 03:05:07;;;;;;;19.67;13.97;;;;;;;4.32;45.05;100213.94;4914024;28;97402;-77
2021/01/31 03:07:36;;;;;;;20.03;14.37;;;;;;;4.29;45.10;100213.75;4907721;28;97212;-77
2021/01/31 03:10:08;;;;;;;21.33;15.43;;;;;;;4.22;45.12;100212.41;4908379;28;97846;-76
2021/01/31 03:12:37;;;;;;;25.80;15.30;;;;;;;4.21;45.02;100214.91;4907265;28;99080;-77
2021/01/31 03:15:09;;;;;;;20.03;14.93;;;;;;;4.13;45.11;100212.69;4908595;28;98020;-77
2021/01/31 03:17:40;;;;;;;20.67;14.57;;;;;;;4.06;45.02;100219.97;4894317;28;97248;-76
2021/01/31 03:20:11;;;;;;;18.50;13.60;;;;;;;4.01;45.16;100217.03;4909251;28;99304;-77
2021/01/31 03:22:42;;;;;;;22.87;15.63;;;;;;;3.98;45.16;100219.41;4912788;28;97765;-77
2021/01/31 03:25:16;;;;;;;21.43;14.17;;;;;;;3.95;45.11;100211.44;4913196;28;97120;-76
2021/01/31 03:27:43;;;;;;;19.13;14.17;;;;;;;3.94;45.06;100216.53;4913318;28;98164;-77
2021/01/31 03:30:13;;;;;;;19.80;14.73;;;;;;;3.92;44.83;100213.78;4912691;28;98981;-76
2021/01/31 03:32:46;;;;;;;19.70;14.50;;;;;;;3.88;44.99;100211.78;4909789;28;97792;-76
2021/01/31 03:35:19;;;;;;;21.83;14.43;;;;;;;3.85;44.98;100210.69;4906023;28;97679;-75
2021/01/31 03:37:51;;;;;;;19.50;13.90;;;;;;;3.78;44.76;100211.94;4893439;28;96979;-75
2021/01/31 03:40:18;;;;;;;24.33;14.40;;;;;;;3.76;44.95;100216.13;4890904;28;97822;-75
2021/01/31 03:42:46;;;;;;;21.30;14.30;;;;;;;3.74;45.20;100211.63;4910752;28;98341;-75
2021/01/31 03:45:16;;;;;;;20.43;14.23;;;;;;;3.72;45.19;100211.50;4916681;28;97039;-75
2021/01/31 03:47:48;;;;;;;21.53;14.73;;;;;;;3.70;44.95;100212.19;4891653;28;96914;-75
2021/01/31 03:50:17;;;;;;;19.90;15.03;;;;;;;3.69;44.85;100223.38;4907923;28;100857;-74
2021/01/31 03:52:45;;;;;;;20.57;14.87;;;;;;;3.61;45.08;100215.03;4911385;28;97907;-75
2021/01/31 03:55:12;;;;;;;19.50;13.47;;;;;;;3.58;44.94;100212.22;4910171;28;97792;-75
2021/01/31 03:57:43;;;;;;;22.27;15.40;;;;;;;3.54;45.07;100217.97;4911582;28;97011;-74
2021/01/31 04:00:14;;;;;;;21.47;13.67;;;;;;;3.50;45.19;100221.19;4912154;28;99254;-76
2021/01/31 04:02:45;;;;;;;20.47;14.40;;;;;;;3.52;44.82;100223.88;4918012;28;102526;-75
2021/01/31 04:05:14;;;;;;;21.23;15.73;;;;;;;3.47;44.93;100218.34;4897428;28;96870;-73
2021/01/31 04:07:45;;;;;;;22.20;15.00;;;;;;;3.42;44.96;100226.59;4910729;28;97365;-75
2021/01/31 04:10:14;;;;;;;19.27;14.27;;;;;;;3.39;45.14;100221.19;4911685;28;99276;-74
2021/01/31 04:12:43;;;;;;;19.63;14.67;;;;;;;3.34;45.45;100228.63;4907532;28;98957;-76
2021/01/31 04:15:17;;;;;;;21.93;15.23;;;;;;;3.27;45.40;100230.66;4900597;28;96993;-77
2021/01/31 04:17:47;;;;;;;22.80;15.60;;;;;;;3.20;45.15;100228.44;4912579;28;97265;-76
2021/01/31 04:20:14;;;;;;;21.53;14.57;;;;;;;3.14;45.42;100228.00;4907963;28;100407;-77
2021/01/31 04:22:44;;;;;;;21.77;14.47;;;;;;;3.07;45.06;100229.22;4909758;28;99340;-77
2021/01/31 04:25:12;;;;;;;21.27;15.07;;;;;;;3.01;44.90;100223.63;4910625;28;97254;-72
2021/01/31 04:27:40;;;;;;;20.50;15.23;;;;;;;2.96;45.41;100228.47;4910831;28;97656;-75
2021/01/31 04:30:12;;;;;;;18.73;14.00;;;;;;;2.93;45.20;100224.75;4914004;28;98001;-76
2021/01/31 04:32:39;;;;;;;20.90;14.80;;;;;;;2.84;45.13;100218.88;4912612;28;98149;-76
2021/01/31 04:35:08;;;;;;;18.77;13.67;;;;;;;2.80;45.46;100215.16;4912058;28;96775;-76
2021/01/31 04:37:36;;;;;;;19.63;15.37;;;;;;;2.76;45.42;100219.97;4911336;28;96920;-76
2021/01/31 04:40:05;;;;;;;21.27;14.33;;;;;;;2.67;45.41;100221.91;4915313;28;98068;-75
2021/01/31 04:42:32;;;;;;;22.40;16.03;;;;;;;2.63;45.44;100217.25;4914625;28;97959;-76
2021/01/31 04:44:59;;;;;;;22.80;14.33;;;;;;;2.59;45.65;100217.84;4912797;28;97435;-76
2021/01/31 04:47:29;;;;;;;21.10;14.60;;;;;;;2.57;45.55;100211.66;4914418;28;97304;-76
2021/01/31 04:50:10;;;;;;;19.77;14.73;;;;;;;2.49;45.44;100216.25;4894258;28;97201;-77
2021/01/31 04:52:47;;;;;;;22.13;15.60;;;;;;;2.48;45.02;100208.38;4912768;28;97836;-76
2021/01/31 04:55:34;;;;;;;25.13;17.13;;;;;;;2.38;44.83;100213.63;4907676;28;97174;-76
2021/01/31 04:58:11;;;;;;;23.43;16.30;;;;;;;2.29;45.37;100220.72;4913242;28;97399;-75
2021/01/31 05:00:46;;;;;;;23.87;15.20;;;;;;;2.21;44.93;100216.66;4917933;28;97921;-75
2021/01/31 05:03:14;;;;;;;23.13;15.20;;;;;;;2.19;45.37;100218.22;4911494;28;98873;-74
2021/01/31 05:05:47;;;;;;;21.13;14.73;;;;;;;2.11;45.24;100234.84;4910686;28;97469;-76
2021/01/31 05:08:18;;;;;;;22.07;14.40;;;;;;;2.00;45.17;100227.16;4910036;28;96920;-76
2021/01/31 05:10:49;;;;;;;18.97;14.10;;;;;;;1.97;45.25;100229.50;4898801;28;99407;-75
2021/01/31 05:13:32;;;;;;;15.37;13.30;;;;;;;1.91;44.79;100231.66;4908685;28;98262;-77
2021/01/31 05:16:04;;;;;;;19.77;13.27;;;;;;;1.87;45.69;100239.03;4912713;28;97235;-76
2021/01/31 05:18:34;;;;;;;15.97;12.37;;;;;;;1.87;45.40;100250.31;4899080;28;97321;-75
2021/01/31 05:21:05;;;;;;;15.27;12.30;;;;;;;1.85;45.25;100240.59;4912174;28;98146;-76
2021/01/31 05:23:34;;;;;;;15.80;12.77;;;;;;;1.80;44.93;100248.03;4909497;28;98091;-74
2021/01/31 05:26:03;;;;;;;17.00;13.10;;;;;;;1.70;44.99;100245.47;4907522;28;97599;-75
2021/01/31 05:28:32;;;;;;;18.17;13.43;;;;;;;1.62;45.29;100251.75;4913806;28;97111;-74
2021/01/31 05:30:59;;;;;;;15.10;12.43;;;;;;;1.56;45.24;100261.63;4912852;28;99372;-77
2021/01/31 05:33:27;;;;;;;16.03;13.07;;;;;;;1.45;45.05;100265.03;4908784;28;97840;-77
2021/01/31 05:36:14;;;;;;;18.20;12.77;;;;;;;1.37;45.11;100260.91;4912131;28;97311;-75
2021/01/31 05:38:43;;;;;;;16.30;12.37;;;;;;;1.33;45.34;100265.75;4914993;28;98014;-77
2021/01/31 05:41:27;;;;;;;16.97;12.63;;;;;;;1.25;44.94;100265.13;4912565;28;97975;-75
2021/01/31 05:43:59;;;;;;;19.27;13.67;;;;;;;1.23;45.21;100261.50;4913472;28;98793;-76
2021/01/31 05:46:38;;;;;;;15.50;12.90;;;;;;;1.17;45.10;100267.88;4910176;28;97922;-76
2021/01/31 05:49:07;;;;;;;14.63;12.60;;;;;;;1.14;45.24;100273.69;4909975;28;96833;-76
2021/01/31 05:51:34;;;;;;;20.27;13.73;;;;;;;1.14;45.24;100272.78;4913848;28;99424;-73
2021/01/31 05:54:18;;;;;;;16.77;12.17;;;;;;;1.09;45.22;100274.09;4912142;28;97811;-74
2021/01/31 05:56:47;;;;;;;15.07;12.47;;;;;;;1.06;45.50;100272.16;4912846;28;97939;-74
2021/01/31 05:59:15;;;;;;;14.03;11.83;;;;;;;1.07;45.02;100276.56;4912628;28;97314;-74
2021/01/31 06:01:54;;;;;;;14.77;12.33;;;;;;;1.08;45.07;100268.00;4912310;28;98410;-74
2021/01/31 06:07:09;;;;;;;15.77;12.87;;;;;;;1.01;45.15;100274.38;4913608;28;97388;-76
2021/01/31 06:09:39;;;;;;;14.47;12.20;;;;;;;0.98;45.05;100273.22;4912695;28;97304;-76
2021/01/31 06:12:14;;;;;;;17.63;13.00;;;;;;;0.93;45.34;100271.97;4912791;28;98169;-76
2021/01/31 06:14:47;;;;;;;19.67;13.37;;;;;;;0.96;45.14;100270.53;4914274;28;98455;-77
2021/01/31 06:17:18;;;;;;;16.00;13.30;;;;;;;0.93;45.19;100274.53;4911232;28;96982;-77
2021/01/31 06:19:45;;;;;;;15.23;12.43;;;;;;;0.91;45.01;100274.38;4910123;28;97067;-75
2021/01/31 06:22:13;;;;;;;19.57;11.90;;;;;;;0.92;45.10;100270.13;4913635;28;98642;-75
2021/01/31 06:24:47;;;;;;;15.80;11.63;;;;;;;0.95;44.83;100272.94;4913355;28;98787;-76
2021/01/31 06:27:29;;;;;;;13.13;11.80;;;;;;;0.97;44.91;100272.31;4913261;28;97528;-73
2021/01/31 06:30:07;;;;;;;14.00;12.33;;;;;;;0.97;44.39;100280.06;4912311;28;96719;-77
2021/01/31 06:32:36;;;;;;;14.10;11.93;;;;;;;1.01;45.18;100281.22;4914603;28;97008;-74
2021/01/31 06:35:07;;;;;;;13.67;11.90;;;;;;;1.01;44.95;100281.22;4909107;28;99020;-74
2021/01/31 06:37:48;;;;;;;16.13;11.77;;;;;;;1.04;45.06;100274.63;4909454;28;97890;-74
2021/01/31 06:40:28;;;;;;;14.50;11.90;;;;;;;1.04;45.07;100276.28;4920537;28;97235;-73
2021/01/31 06:43:01;;;;;;;12.30;11.07;;;;;;;1.09;45.04;100275.00;4912246;28;99235;-74
2021/01/31 06:45:34;;;;;;;13.07;11.40;;;;;;;1.12;44.85;100272.66;4915707;28;99325;-73
2021/01/31 06:48:37;;;;;;;13.23;11.23;;;;;;;1.17;44.71;100275.63;4911734;28;97947;-75
2021/01/31 06:51:20;;;;;;;15.07;11.67;;;;;;;1.15;44.94;100275.47;4868714;28;97884;-74
2021/01/31 06:54:00;;;;;;;14.57;12.43;;;;;;;1.14;44.66;100273.69;4915020;28;98779;-74
2021/01/31 06:57:10;;;;;;;14.43;12.17;;;;;;;1.14;44.79;100267.59;4910672;28;97925;-76
2021/01/31 06:59:52;;;;;;;12.70;11.47;;;;;;;1.13;44.57;100271.91;4869567;28;97415;-76
2021/01/31 07:02:39;;;;;;;12.03;10.73;;;;;;;1.10;44.75;100270.72;4905496;28;97722;-74
2021/01/31 07:05:13;;;;;;;11.77;10.70;;;;;;;1.08;44.48;100272.31;4896067;28;98947;-76
2021/01/31 07:08:34;;;;;;;11.77;10.57;;;;;;;1.05;44.75;100272.94;4905980;28;103378;-75
2021/01/31 07:11:18;;;;;;;13.10;11.80;;;;;;;1.01;44.92;100281.22;4903854;28;97975;-76
2021/01/31 07:13:54;;;;;;;12.73;11.50;;;;;;;1.00;44.92;100277.72;4906396;28;97683;-75
2021/01/31 07:16:33;;;;;;;13.63;12.23;;;;;;;0.94;45.00;100277.25;4897143;28;97831;-75
2021/01/31 07:19:04;;;;;;;12.80;11.57;;;;;;;0.98;44.77;100278.41;4904195;28;98180;-76
2021/01/31 07:21:37;;;;;;;12.43;11.30;;;;;;;0.96;45.11;100273.09;4898515;28;97348;-73
2021/01/31 07:24:08;;;;;;;13.67;11.30;;;;;;;0.99;45.02;100277.59;4904780;28;98157;-76
2021/01/31 07:26:40;;;;;;;11.97;10.73;;;;;;;0.99;44.79;100272.44;4901679;28;97837;-75
2021/01/31 07:29:14;;;;;;;13.57;11.73;;;;;;;1.02;44.87;100273.59;4909674;28;97771;-76
2021/01/31 07:31:46;;;;;;;12.77;11.20;;;;;;;1.04;45.01;100277.19;4904044;28;97857;-77
2021/01/31 07:34:18;;;;;;;12.97;11.57;;;;;;;1.02;45.05;100275.28;4904068;28;98583;-74
2021/01/31 07:36:58;;;;;;;14.07;10.93;;;;;;;1.00;44.82;100290.66;4904123;28;98135;-74
2021/01/31 07:39:30;;;;;;;12.97;11.53;;;;;;;1.00;44.75;100289.78;4906810;28;97942;-76
2021/01/31 07:41:58;;;;;;;16.63;12.77;;;;;;;0.99;44.75;100290.53;4903814;28;98072;-75
2021/01/31 07:44:46;;;;;;;12.87;11.53;;;;;;;0.98;44.65;100284.47;4902818;28;97040;-78
2021/01/31 07:47:14;;;;;;;16.07;12.33;;;;;;;0.97;44.57;100289.50;4904875;28;97711;-75
2021/01/31 07:50:11;;;;;;;16.27;12.90;;;;;;;0.96;44.46;100288.63;4906520;28;98922;-76
2021/01/31 07:52:52;;;;;;;13.93;12.40;;;;;;;0.90;44.32;100287.19;4895644;28;97874;-75
2021/01/31 07:55:33;;;;;;;15.87;12.57;;;;;;;0.83;44.44;100285.81;4907621;28;98524;-75
2021/01/31 07:58:06;;;;;;;17.33;13.23;;;;;;;0.76;44.73;100283.50;4904622;28;98112;-74
2021/01/31 08:00:40;;;;;;;19.00;14.40;;;;;;;0.73;44.64;100290.97;4910309;28;99092;-77
2021/01/31 08:03:25;;;;;;;16.97;13.17;;;;;;;0.68;44.70;100296.53;4913512;28;97938;-75
2021/01/31 08:05:56;;;;;;;13.60;11.53;;;;;;;0.65;44.52;100291.13;4913486;28;96654;-77
2021/01/31 08:08:46;;;;;;;13.87;11.50;;;;;;;0.58;44.31;100291.38;4913018;28;98498;-77
2021/01/31 08:11:53;;;;;;;14.53;10.93;;;;;;;0.52;44.56;100291.78;4911059;28;98055;-76
2021/01/31 08:14:58;;;;;;;12.70;11.20;;;;;;;0.49;44.41;100295.78;4909845;28;97143;-76
2021/01/31 08:17:38;;;;;;;12.10;10.90;;;;;;;0.48;45.11;100291.38;4898095;28;97310;-75
2021/01/31 08:20:39;;;;;;;19.03;13.50;;;;;;;0.52;44.59;100304.69;4907347;28;98307;-77
2021/01/31 08:23:52;;;;;;;13.40;11.23;;;;;;;0.50;44.60;100302.75;4904917;28;99149;-76
2021/01/31 08:26:41;;;;;;;11.40;10.30;;;;;;;0.50;44.50;100300.16;4885450;28;97315;-75
2021/01/31 08:29:30;;;;;;;11.70;10.23;;;;;;;0.49;44.72;100291.53;4904438;28;97318;-76
2021/01/31 08:32:19;;;;;;;11.50;10.40;;;;;;;0.50;45.02;100293.31;4907747;28;98308;-77
2021/01/31 08:35:19;;;;;;;11.37;10.43;;;;;;;0.52;44.68;100296.94;4906128;28;99095;-76
2021/01/31 08:37:50;;;;;;;11.17;10.17;;;;;;;0.56;44.71;100298.09;4906758;28;97553;-75
2021/01/31 08:40:23;;;;;;;11.00;10.00;;;;;;;0.58;44.58;100297.47;4907270;28;98056;-76
2021/01/31 08:42:54;;;;;;;12.57;11.13;;;;;;;0.64;44.74;100297.06;4908745;28;99353;-76
2021/01/31 08:45:23;;;;;;;15.57;11.83;;;;;;;0.73;44.40;100292.66;4905017;28;98409;-76
2021/01/31 08:47:51;;;;;;;12.13;10.90;;;;;;;0.77;44.30;100303.38;4903722;28;97215;-75
2021/01/31 08:50:18;;;;;;;13.23;11.93;;;;;;;0.83;44.58;100290.06;4908451;28;97963;-76
2021/01/31 08:52:47;;;;;;;14.27;12.27;;;;;;;0.86;44.25;100288.63;4906939;28;99293;-77
2021/01/31 08:55:23;;;;;;;14.70;12.57;;;;;;;0.91;44.30;100289.91;4894520;28;102608;-76
2021/01/31 08:57:57;;;;;;;13.40;11.80;;;;;;;0.97;44.45;100300.75;4901204;28;97036;-76
2021/01/31 09:00:26;;;;;;;13.33;11.93;;;;;;;1.06;44.30;100294.53;4909096;28;97587;-76
2021/01/31 09:02:53;;;;;;;14.63;13.20;;;;;;;1.14;44.05;100302.13;4905463;28;98231;-75
2021/01/31 09:05:21;;;;;;;12.43;11.23;;;;;;;1.20;44.35;100302.66;4909023;28;98150;-75
2021/01/31 09:07:51;;;;;;;15.03;12.40;;;;;;;1.26;44.23;100303.13;4906451;28;97340;-76
2021/01/31 09:10:26;;;;;;;15.03;12.93;;;;;;;1.34;44.47;100299.47;4907428;28;98259;-77
2021/01/31 09:13:13;;;;;;;16.17;13.17;;;;;;;1.42;44.14;100293.25;4907343;28;97003;-76
2021/01/31 09:15:43;;;;;;;14.80;12.33;;;;;;;1.49;44.24;100300.72;4905959;28;98472;-77
2021/01/31 09:18:17;;;;;;;15.43;12.97;;;;;;;1.56;43.89;100300.44;4906865;28;98120;-76
2021/01/31 09:20:44;;;;;;;14.67;12.70;;;;;;;1.67;43.90;100301.28;4899590;28;97401;-76
2021/01/31 09:23:14;;;;;;;15.50;13.13;;;;;;;1.75;44.22;100301.09;4908279;28;98159;-76
2021/01/31 09:25:42;;;;;;;19.90;14.63;;;;;;;1.83;44.00;100302.63;4905958;28;99091;-76
2021/01/31 09:28:18;;;;;;;17.47;13.07;;;;;;;1.93;43.70;100301.66;4887529;28;97713;-76
2021/01/31 09:30:46;;;;;;;48.53;24.83;;;;;;;2.06;43.92;100300.13;4906128;28;97140;-76
2021/01/31 09:33:19;;;;;;;19.30;14.27;;;;;;;2.18;43.81;100294.09;4906451;28;98034;-76
2021/01/31 09:35:47;;;;;;;19.53;13.50;;;;;;;2.29;43.41;100286.38;4907712;28;99384;-76
2021/01/31 09:38:17;;;;;;;16.73;12.83;;;;;;;2.38;43.15;100278.41;4907147;28;97157;-74
2021/01/31 09:40:45;;;;;;;17.33;14.37;;;;;;;2.46;42.95;100285.09;4904103;28;97758;-74
2021/01/31 09:43:17;;;;;;;16.00;13.33;;;;;;;2.55;43.10;100272.84;4905273;28;97750;-76
2021/01/31 09:45:47;;;;;;;19.73;14.83;;;;;;;2.64;43.17;100273.53;4906634;28;97936;-75
2021/01/31 09:48:18;;;;;;;19.27;13.93;;;;;;;2.74;43.06;100279.50;4896081;28;98175;-76
2021/01/31 09:50:51;;;;;;;19.53;14.07;;;;;;;2.81;43.14;100281.78;4906022;28;97854;-76
2021/01/31 09:53:29;;;;;;;20.33;15.57;;;;;;;2.91;43.23;100276.50;4904486;28;99001;-76
2021/01/31 09:55:56;;;;;;;19.60;13.83;;;;;;;2.98;42.90;100281.34;4899541;28;99436;-76
2021/01/31 09:58:28;;;;;;;21.60;15.93;;;;;;;3.04;42.85;100275.72;4906937;28;98117;-76
2021/01/31 10:00:55;;;;;;;21.87;15.00;;;;;;;3.12;42.51;100276.28;4908135;28;97368;-77
2021/01/31 10:03:27;;;;;;;19.77;14.60;;;;;;;3.19;42.64;100274.25;4900984;28;98808;-77
2021/01/31 10:06:10;;;;;;;18.90;14.37;;;;;;;3.28;42.97;100282.72;4906485;28;99003;-76
2021/01/31 10:08:41;;;;;;;35.37;18.33;;;;;;;3.35;42.58;100272.00;4910568;28;97814;-76
2021/01/31 10:11:33;;;;;;;39.33;20.23;;;;;;;3.46;42.81;100277.94;4910862;28;99016;-76
2021/01/31 10:14:01;;;;;;;20.70;14.27;;;;;;;3.55;42.42;100282.13;4904000;28;98698;-75
2021/01/31 10:16:31;;;;;;;20.27;15.10;;;;;;;3.62;42.71;100279.16;4907718;28;97953;-76
2021/01/31 10:19:16;;;;;;;16.87;14.33;;;;;;;3.69;42.92;100271.00;4909171;28;97950;-76
2021/01/31 10:21:45;;;;;;;23.40;16.30;;;;;;;3.79;42.35;100268.28;4906597;28;97412;-76
2021/01/31 10:24:26;;;;;;;18.13;16.10;;;;;;;3.86;42.45;100265.34;4905395;28;98096;-74
2021/01/31 10:27:09;;;;;;;19.73;14.30;;;;;;;3.93;42.41;100266.66;4905450;28;100515;-75
2021/01/31 10:29:37;;;;;;;19.63;14.23;;;;;;;4.00;42.22;100258.50;4904638;28;96934;-76
2021/01/31 10:32:22;;;;;;;19.10;15.27;;;;;;;4.10;42.51;100266.16;4904336;28;97274;-75
2021/01/31 10:34:50;;;;;;;19.70;14.23;;;;;;;4.19;42.10;100272.00;4904227;28;97902;-75
2021/01/31 10:37:19;;;;;;;20.73;14.90;;;;;;;4.25;42.23;100256.81;4905433;28;97950;-73
2021/01/31 10:39:47;;;;;;;21.03;15.70;;;;;;;4.32;42.02;100258.13;4906589;28;97975;-75
2021/01/31 10:42:14;;;;;;;19.73;14.77;;;;;;;4.43;41.87;100262.38;4904496;28;97448;-74
2021/01/31 10:44:43;;;;;;;22.80;15.73;;;;;;;4.50;41.92;100264.59;4902402;28;99120;-76
2021/01/31 10:47:10;;;;;;;20.80;14.87;;;;;;;4.55;42.18;100255.41;4904020;28;99087;-74
2021/01/31 10:49:37;;;;;;;18.77;15.13;;;;;;;4.60;42.13;100256.63;4904496;28;97281;-72
2021/01/31 10:52:05;;;;;;;24.17;14.10;;;;;;;4.68;42.10;100255.44;4904184;28;97873;-74
2021/01/31 10:54:32;;;;;;;21.97;15.80;;;;;;;4.76;41.98;100256.88;4904905;28;99294;-75
2021/01/31 10:56:59;;;;;;;39.03;23.77;;;;;;;4.83;41.69;100256.47;4903260;28;99322;-76
2021/01/31 10:59:28;;;;;;;29.87;17.83;;;;;;;4.91;41.88;100255.25;4909348;28;97244;-79
2021/01/31 11:01:56;;;;;;;21.17;15.17;;;;;;;4.96;41.83;100256.50;4909773;28;97981;-77
2021/01/31 11:04:23;;;;;;;18.50;14.50;;;;;;;4.99;41.77;100249.78;4907342;28;98983;-76
2021/01/31 11:06:50;;;;;;;18.17;14.93;;;;;;;5.04;41.78;100253.59;4904638;28;99031;-75
2021/01/31 11:09:18;;;;;;;19.90;14.67;;;;;;;5.11;41.27;100247.06;4904709;28;96941;-77
2021/01/31 11:11:45;;;;;;;18.73;14.87;;;;;;;5.15;41.98;100254.28;4904815;28;97652;-75
2021/01/31 11:14:13;;;;;;;18.70;15.07;;;;;;;5.22;41.74;100256.47;4905381;28;98256;-75
2021/01/31 11:16:41;;;;;;;18.53;14.77;;;;;;;5.28;41.66;100256.88;4903056;28;99247;-75
2021/01/31 11:19:09;;;;;;;17.80;14.37;;;;;;;5.31;41.54;100254.47;4902942;28;97679;-74
2021/01/31 11:21:37;;;;;;;19.70;14.37;;;;;;;5.34;41.71;100257.31;4903960;28;97037;-75
2021/01/31 11:24:05;;;;;;;18.77;14.80;;;;;;;5.39;41.31;100262.78;4892427;28;98257;-76
2021/01/31 11:26:32;;;;;;;25.10;17.27;;;;;;;5.42;41.70;100250.88;4910942;28;97507;-76
2021/01/31 11:28:59;;;;;;;21.33;16.07;;;;;;;5.47;41.87;100257.28;4878828;28;97308;-77
2021/01/31 11:31:27;;;;;;;22.27;15.73;;;;;;;5.51;41.68;100264.47;4912130;28;98176;-77
2021/01/31 11:33:55;;;;;;;19.53;14.23;;;;;;;5.55;41.27;100258.66;4915965;28;98098;-69
2021/01/31 11:36:24;;;;;;;16.97;13.57;;;;;;;5.56;41.47;100252.66;4918288;28;97943;-69
2021/01/31 11:38:51;;;;;;;20.77;15.27;;;;;;;5.59;41.21;100251.94;4909031;28;97424;-75
2021/01/31 11:41:19;;;;;;;18.67;14.57;;;;;;;5.65;41.28;100248.03;4906776;28;96868;-75
2021/01/31 11:43:47;;;;;;;17.07;13.80;;;;;;;5.70;41.05;100245.72;4905839;28;97813;-77
2021/01/31 11:46:14;;;;;;;19.80;13.70;;;;;;;5.75;41.78;100239.06;4905974;28;99583;-76